sensor_id;sensor_type;location;lat;lon;timestamp;P1;durP1;ratioP1;P2;durP2;ratioP2
75234;SDS011;63817;51.228;-1.472;2022-12-29T00:01:46;34.95;;;6.40;;
75234;SDS011;63817;51.228;-1.472;2022-12-29T00:04:12;33.63;;;5.50;;
75234;SDS011;63817;51.228;-1.472;2022-12-29T00:06:39;35.17;;;6.38;;
75234;SDS011;63817;51.228;-1.472;2022-12-29T00:09:04;38.55;;;5.50;;
75234;SDS011;63817;51.228;-1.472;2022-12-29T00:11:29;42.42;;;6.20;;
75234;SDS011;63817;51.228;-1.472;2022-12-29T00:13:55;35.25;;;5.60;;
75234;SDS011;63817;51.228;-1.472;2022-12-29T00:16:42;32.28;;;6.30;;
75234;SDS011;63817;51.228;-1.472;2022-12-29T00:19:09;52.90;;;6.85;;
75234;SDS011;63817;51.228;-1.472;2022-12-29T00:21:55;50.58;;;7.22;;
75234;SDS011;63817;51.228;-1.472;2022-12-29T00:24:39;57.20;;;7.53;;
75234;SDS011;63817;51.228;-1.472;2022-12-29T00:27:20;33.38;;;5.07;;
75234;SDS011;63817;51.228;-1.472;2022-12-29T00:30:08;48.55;;;5.90;;
75234;SDS011;63817;51.228;-1.472;2022-12-29T00:32:55;44.28;;;5.63;;
75234;SDS011;63817;51.228;-1.472;2022-12-29T00:35:51;39.25;;;5.60;;
75234;SDS011;63817;51.228;-1.472;2022-12-29T00:38:18;43.83;;;6.53;;
75234;SDS011;63817;51.228;-1.472;2022-12-29T00:41:02;44.55;;;6.45;;
75234;SDS011;63817;51.228;-1.472;2022-12-29T00:43:54;47.95;;;6.28;;
75234;SDS011;63817;51.228;-1.472;2022-12-29T00:46:32;52.20;;;6.90;;
75234;SDS011;63817;51.228;-1.472;2022-12-29T00:48:58;42.92;;;5.78;;
75234;SDS011;63817;51.228;-1.472;2022-12-29T00:51:42;34.80;;;6.13;;
75234;SDS011;63817;51.228;-1.472;2022-12-29T00:54:08;34.97;;;5.10;;
75234;SDS011;63817;51.228;-1.472;2022-12-29T00:56:33;43.45;;;5.10;;
75234;SDS011;63817;51.228;-1.472;2022-12-29T00:59:02;31.65;;;4.78;;
75234;SDS011;63817;51.228;-1.472;2022-12-29T01:01:28;27.05;;;4.18;;
75234;SDS011;63817;51.228;-1.472;2022-12-29T01:03:54;32.25;;;3.92;;
75234;SDS011;63817;51.228;-1.472;2022-12-29T01:06:20;31.52;;;3.88;;
75234;SDS011;63817;51.228;-1.472;2022-12-29T01:08:45;39.05;;;6.20;;
75234;SDS011;63817;51.228;-1.472;2022-12-29T01:11:11;30.55;;;3.95;;
75234;SDS011;63817;51.228;-1.472;2022-12-29T01:13:38;32.10;;;5.32;;
75234;SDS011;63817;51.228;-1.472;2022-12-29T01:16:05;32.65;;;4.95;;
75234;SDS011;63817;51.228;-1.472;2022-12-29T01:18:31;36.22;;;4.32;;
75234;SDS011;63817;51.228;-1.472;2022-12-29T01:21:01;33.83;;;4.95;;
75234;SDS011;63817;51.228;-1.472;2022-12-29T01:23:30;34.10;;;4.80;;
75234;SDS011;63817;51.228;-1.472;2022-12-29T01:25:56;40.97;;;5.78;;
75234;SDS011;63817;51.228;-1.472;2022-12-29T01:28:21;38.20;;;5.10;;
75234;SDS011;63817;51.228;-1.472;2022-12-29T01:30:47;28.70;;;4.43;;
75234;SDS011;63817;51.228;-1.472;2022-12-29T01:33:12;32.20;;;4.85;;
75234;SDS011;63817;51.228;-1.472;2022-12-29T01:35:38;35.83;;;4.93;;
75234;SDS011;63817;51.228;-1.472;2022-12-29T01:38:03;37.22;;;6.10;;
75234;SDS011;63817;51.228;-1.472;2022-12-29T01:40:29;35.88;;;4.55;;
75234;SDS011;63817;51.228;-1.472;2022-12-29T01:42:54;36.67;;;5.72;;
75234;SDS011;63817;51.228;-1.472;2022-12-29T01:45:20;40.10;;;5.95;;
75234;SDS011;63817;51.228;-1.472;2022-12-29T01:47:47;38.13;;;5.80;;
75234;SDS011;63817;51.228;-1.472;2022-12-29T01:52:55;44.70;;;6.32;;
75234;SDS011;63817;51.228;-1.472;2022-12-29T01:55:23;36.50;;;4.95;;
75234;SDS011;63817;51.228;-1.472;2022-12-29T01:57:50;45.75;;;6.38;;
75234;SDS011;63817;51.228;-1.472;2022-12-29T02:00:16;49.05;;;7.63;;
75234;SDS011;63817;51.228;-1.472;2022-12-29T02:02:43;50.17;;;7.75;;
75234;SDS011;63817;51.228;-1.472;2022-12-29T02:05:16;54.15;;;7.78;;
75234;SDS011;63817;51.228;-1.472;2022-12-29T02:07:48;45.13;;;7.30;;
75234;SDS011;63817;51.228;-1.472;2022-12-29T02:10:15;47.47;;;7.45;;
75234;SDS011;63817;51.228;-1.472;2022-12-29T02:12:41;43.83;;;6.78;;
75234;SDS011;63817;51.228;-1.472;2022-12-29T02:15:06;73.70;;;8.90;;
75234;SDS011;63817;51.228;-1.472;2022-12-29T02:17:50;48.00;;;7.25;;
75234;SDS011;63817;51.228;-1.472;2022-12-29T02:28:46;63.28;;;8.35;;
75234;SDS011;63817;51.228;-1.472;2022-12-29T02:31:44;52.53;;;7.15;;
75234;SDS011;63817;51.228;-1.472;2022-12-29T02:40:16;46.13;;;6.55;;
75234;SDS011;63817;51.228;-1.472;2022-12-29T02:45:20;51.65;;;7.85;;
75234;SDS011;63817;51.228;-1.472;2022-12-29T02:50:48;50.78;;;6.70;;
75234;SDS011;63817;51.228;-1.472;2022-12-29T02:53:18;36.30;;;6.00;;
75234;SDS011;63817;51.228;-1.472;2022-12-29T02:56:07;43.03;;;6.60;;
75234;SDS011;63817;51.228;-1.472;2022-12-29T02:58:33;50.80;;;7.50;;
75234;SDS011;63817;51.228;-1.472;2022-12-29T03:01:05;38.53;;;5.93;;
75234;SDS011;63817;51.228;-1.472;2022-12-29T03:03:49;48.83;;;7.07;;
75234;SDS011;63817;51.228;-1.472;2022-12-29T03:06:32;40.15;;;5.90;;
75234;SDS011;63817;51.228;-1.472;2022-12-29T03:09:20;47.55;;;6.25;;
75234;SDS011;63817;51.228;-1.472;2022-12-29T03:11:58;45.50;;;7.82;;
75234;SDS011;63817;51.228;-1.472;2022-12-29T03:14:39;42.03;;;5.28;;
75234;SDS011;63817;51.228;-1.472;2022-12-29T03:19:52;54.47;;;7.82;;
75234;SDS011;63817;51.228;-1.472;2022-12-29T03:22:28;44.78;;;7.20;;
75234;SDS011;63817;51.228;-1.472;2022-12-29T03:27:35;54.80;;;7.47;;
75234;SDS011;63817;51.228;-1.472;2022-12-29T03:30:04;44.03;;;5.47;;
75234;SDS011;63817;51.228;-1.472;2022-12-29T03:32:34;44.72;;;6.82;;
75234;SDS011;63817;51.228;-1.472;2022-12-29T03:35:03;43.08;;;6.53;;
75234;SDS011;63817;51.228;-1.472;2022-12-29T03:37:31;39.47;;;6.00;;
75234;SDS011;63817;51.228;-1.472;2022-12-29T03:40:01;45.92;;;5.90;;
75234;SDS011;63817;51.228;-1.472;2022-12-29T03:42:27;35.42;;;5.30;;
75234;SDS011;63817;51.228;-1.472;2022-12-29T03:44:56;45.85;;;6.95;;
75234;SDS011;63817;51.228;-1.472;2022-12-29T03:47:22;32.88;;;5.38;;
75234;SDS011;63817;51.228;-1.472;2022-12-29T03:49:48;38.60;;;5.90;;
75234;SDS011;63817;51.228;-1.472;2022-12-29T03:52:14;39.55;;;4.82;;
75234;SDS011;63817;51.228;-1.472;2022-12-29T03:54:39;32.97;;;4.63;;
75234;SDS011;63817;51.228;-1.472;2022-12-29T03:57:05;30.15;;;5.47;;
75234;SDS011;63817;51.228;-1.472;2022-12-29T03:59:30;33.25;;;6.10;;
75234;SDS011;63817;51.228;-1.472;2022-12-29T04:01:56;35.08;;;5.85;;
75234;SDS011;63817;51.228;-1.472;2022-12-29T04:04:21;39.50;;;5.65;;
75234;SDS011;63817;51.228;-1.472;2022-12-29T04:06:47;27.17;;;4.68;;
75234;SDS011;63817;51.228;-1.472;2022-12-29T04:09:12;26.25;;;4.75;;
75234;SDS011;63817;51.228;-1.472;2022-12-29T04:11:38;33.65;;;4.40;;
75234;SDS011;63817;51.228;-1.472;2022-12-29T04:14:03;36.58;;;4.15;;
75234;SDS011;63817;51.228;-1.472;2022-12-29T04:16:28;31.25;;;4.65;;
75234;SDS011;63817;51.228;-1.472;2022-12-29T04:18:54;36.10;;;4.75;;
75234;SDS011;63817;51.228;-1.472;2022-12-29T04:21:19;28.63;;;5.60;;
75234;SDS011;63817;51.228;-1.472;2022-12-29T04:23:45;17.92;;;3.53;;
75234;SDS011;63817;51.228;-1.472;2022-12-29T04:26:10;20.65;;;3.38;;
75234;SDS011;63817;51.228;-1.472;2022-12-29T04:28:36;27.85;;;3.78;;
75234;SDS011;63817;51.228;-1.472;2022-12-29T04:31:02;22.60;;;3.28;;
75234;SDS011;63817;51.228;-1.472;2022-12-29T04:33:28;29.60;;;4.05;;
75234;SDS011;63817;51.228;-1.472;2022-12-29T04:35:54;26.17;;;3.72;;
75234;SDS011;63817;51.228;-1.472;2022-12-29T04:38:19;20.63;;;4.18;;
75234;SDS011;63817;51.228;-1.472;2022-12-29T04:40:47;23.30;;;3.05;;
75234;SDS011;63817;51.228;-1.472;2022-12-29T04:43:12;25.30;;;3.50;;
75234;SDS011;63817;51.228;-1.472;2022-12-29T04:45:39;13.70;;;2.67;;
75234;SDS011;63817;51.228;-1.472;2022-12-29T04:48:08;15.10;;;2.90;;
75234;SDS011;63817;51.228;-1.472;2022-12-29T04:50:34;13.77;;;2.45;;
75234;SDS011;63817;51.228;-1.472;2022-12-29T04:53:00;16.08;;;2.72;;
75234;SDS011;63817;51.228;-1.472;2022-12-29T04:55:25;11.77;;;2.22;;
75234;SDS011;63817;51.228;-1.472;2022-12-29T04:57:51;11.68;;;2.05;;
75234;SDS011;63817;51.228;-1.472;2022-12-29T05:00:16;12.32;;;2.15;;
75234;SDS011;63817;51.228;-1.472;2022-12-29T05:02:42;14.38;;;1.95;;
75234;SDS011;63817;51.228;-1.472;2022-12-29T05:05:07;17.45;;;2.22;;
75234;SDS011;63817;51.228;-1.472;2022-12-29T05:07:33;9.90;;;1.60;;
75234;SDS011;63817;51.228;-1.472;2022-12-29T05:09:58;18.92;;;3.05;;
75234;SDS011;63817;51.228;-1.472;2022-12-29T05:12:24;11.63;;;2.45;;
75234;SDS011;63817;51.228;-1.472;2022-12-29T05:14:49;10.40;;;1.83;;
75234;SDS011;63817;51.228;-1.472;2022-12-29T05:17:14;14.27;;;2.80;;
75234;SDS011;63817;51.228;-1.472;2022-12-29T05:19:40;16.75;;;1.90;;
75234;SDS011;63817;51.228;-1.472;2022-12-29T05:22:05;16.17;;;1.73;;
75234;SDS011;63817;51.228;-1.472;2022-12-29T05:24:31;9.82;;;1.63;;
75234;SDS011;63817;51.228;-1.472;2022-12-29T05:26:56;15.18;;;2.03;;
75234;SDS011;63817;51.228;-1.472;2022-12-29T05:29:21;14.98;;;2.38;;
75234;SDS011;63817;51.228;-1.472;2022-12-29T05:31:47;15.52;;;2.30;;
75234;SDS011;63817;51.228;-1.472;2022-12-29T05:34:12;17.02;;;2.88;;
75234;SDS011;63817;51.228;-1.472;2022-12-29T05:36:38;13.93;;;2.47;;
75234;SDS011;63817;51.228;-1.472;2022-12-29T05:39:04;15.80;;;1.73;;
75234;SDS011;63817;51.228;-1.472;2022-12-29T05:41:29;11.80;;;1.75;;
75234;SDS011;63817;51.228;-1.472;2022-12-29T05:43:55;10.88;;;1.88;;
75234;SDS011;63817;51.228;-1.472;2022-12-29T05:46:20;12.38;;;2.53;;
75234;SDS011;63817;51.228;-1.472;2022-12-29T05:48:45;12.75;;;2.00;;
75234;SDS011;63817;51.228;-1.472;2022-12-29T05:51:11;12.38;;;2.22;;
75234;SDS011;63817;51.228;-1.472;2022-12-29T05:53:36;11.75;;;2.25;;
75234;SDS011;63817;51.228;-1.472;2022-12-29T05:56:02;7.25;;;1.80;;
75234;SDS011;63817;51.228;-1.472;2022-12-29T05:58:27;13.55;;;1.67;;
75234;SDS011;63817;51.228;-1.472;2022-12-29T06:00:53;12.38;;;1.35;;
75234;SDS011;63817;51.228;-1.472;2022-12-29T06:03:18;11.27;;;1.67;;
75234;SDS011;63817;51.228;-1.472;2022-12-29T06:05:47;9.93;;;1.75;;
75234;SDS011;63817;51.228;-1.472;2022-12-29T06:08:12;9.60;;;1.85;;
75234;SDS011;63817;51.228;-1.472;2022-12-29T06:10:38;13.18;;;1.65;;
75234;SDS011;63817;51.228;-1.472;2022-12-29T06:13:03;11.73;;;1.92;;
75234;SDS011;63817;51.228;-1.472;2022-12-29T06:15:30;15.30;;;2.00;;
75234;SDS011;63817;51.228;-1.472;2022-12-29T06:17:56;17.10;;;2.30;;
75234;SDS011;63817;51.228;-1.472;2022-12-29T06:20:22;7.57;;;1.42;;
75234;SDS011;63817;51.228;-1.472;2022-12-29T06:22:47;17.20;;;1.90;;
75234;SDS011;63817;51.228;-1.472;2022-12-29T06:25:13;15.85;;;2.08;;
75234;SDS011;63817;51.228;-1.472;2022-12-29T06:27:38;18.73;;;2.95;;
75234;SDS011;63817;51.228;-1.472;2022-12-29T06:30:04;18.30;;;1.90;;
75234;SDS011;63817;51.228;-1.472;2022-12-29T06:32:30;12.70;;;2.25;;
75234;SDS011;63817;51.228;-1.472;2022-12-29T06:34:55;12.52;;;2.03;;
75234;SDS011;63817;51.228;-1.472;2022-12-29T06:37:21;14.68;;;3.38;;
75234;SDS011;63817;51.228;-1.472;2022-12-29T06:39:49;13.05;;;2.10;;
75234;SDS011;63817;51.228;-1.472;2022-12-29T06:42:15;6.13;;;1.65;;
75234;SDS011;63817;51.228;-1.472;2022-12-29T06:44:40;8.73;;;1.65;;
75234;SDS011;63817;51.228;-1.472;2022-12-29T06:47:05;9.35;;;1.60;;
75234;SDS011;63817;51.228;-1.472;2022-12-29T06:49:31;11.00;;;1.73;;
75234;SDS011;63817;51.228;-1.472;2022-12-29T06:51:56;12.85;;;1.50;;
75234;SDS011;63817;51.228;-1.472;2022-12-29T06:54:23;10.43;;;1.77;;
75234;SDS011;63817;51.228;-1.472;2022-12-29T06:56:48;14.07;;;2.10;;
75234;SDS011;63817;51.228;-1.472;2022-12-29T06:59:14;11.27;;;2.03;;
75234;SDS011;63817;51.228;-1.472;2022-12-29T07:01:39;6.53;;;1.52;;
75234;SDS011;63817;51.228;-1.472;2022-12-29T07:04:05;13.20;;;2.03;;
75234;SDS011;63817;51.228;-1.472;2022-12-29T07:06:30;8.95;;;1.67;;
75234;SDS011;63817;51.228;-1.472;2022-12-29T07:08:55;12.77;;;1.92;;
75234;SDS011;63817;51.228;-1.472;2022-12-29T07:11:22;9.68;;;2.20;;
75234;SDS011;63817;51.228;-1.472;2022-12-29T07:13:48;10.40;;;1.77;;
75234;SDS011;63817;51.228;-1.472;2022-12-29T07:16:13;9.82;;;1.58;;
75234;SDS011;63817;51.228;-1.472;2022-12-29T07:18:38;12.63;;;3.35;;
75234;SDS011;63817;51.228;-1.472;2022-12-29T07:21:04;11.00;;;2.00;;
75234;SDS011;63817;51.228;-1.472;2022-12-29T07:23:30;11.48;;;1.80;;
75234;SDS011;63817;51.228;-1.472;2022-12-29T07:26:02;11.32;;;1.75;;
75234;SDS011;63817;51.228;-1.472;2022-12-29T07:28:28;14.10;;;2.40;;
75234;SDS011;63817;51.228;-1.472;2022-12-29T07:30:54;8.30;;;1.80;;
75234;SDS011;63817;51.228;-1.472;2022-12-29T07:33:20;15.20;;;2.13;;
75234;SDS011;63817;51.228;-1.472;2022-12-29T07:35:45;11.60;;;1.77;;
75234;SDS011;63817;51.228;-1.472;2022-12-29T07:38:11;11.73;;;1.83;;
75234;SDS011;63817;51.228;-1.472;2022-12-29T07:40:36;13.65;;;1.88;;
75234;SDS011;63817;51.228;-1.472;2022-12-29T07:43:02;13.32;;;2.38;;
75234;SDS011;63817;51.228;-1.472;2022-12-29T07:45:29;9.98;;;1.90;;
75234;SDS011;63817;51.228;-1.472;2022-12-29T07:47:54;10.73;;;2.35;;
75234;SDS011;63817;51.228;-1.472;2022-12-29T07:50:20;18.50;;;2.35;;
75234;SDS011;63817;51.228;-1.472;2022-12-29T07:52:45;13.40;;;2.35;;
75234;SDS011;63817;51.228;-1.472;2022-12-29T07:55:12;15.57;;;2.00;;
75234;SDS011;63817;51.228;-1.472;2022-12-29T07:57:38;16.00;;;2.63;;
75234;SDS011;63817;51.228;-1.472;2022-12-29T08:00:04;16.90;;;2.22;;
75234;SDS011;63817;51.228;-1.472;2022-12-29T08:02:30;9.07;;;1.60;;
75234;SDS011;63817;51.228;-1.472;2022-12-29T08:04:55;18.08;;;2.22;;
75234;SDS011;63817;51.228;-1.472;2022-12-29T08:07:21;30.85;;;2.88;;
75234;SDS011;63817;51.228;-1.472;2022-12-29T08:09:46;11.90;;;1.77;;
75234;SDS011;63817;51.228;-1.472;2022-12-29T08:12:11;15.45;;;2.20;;
75234;SDS011;63817;51.228;-1.472;2022-12-29T08:14:37;18.80;;;1.77;;
75234;SDS011;63817;51.228;-1.472;2022-12-29T08:17:03;11.77;;;1.85;;
75234;SDS011;63817;51.228;-1.472;2022-12-29T08:19:28;11.00;;;2.03;;
75234;SDS011;63817;51.228;-1.472;2022-12-29T08:21:54;8.77;;;2.00;;
75234;SDS011;63817;51.228;-1.472;2022-12-29T08:24:19;16.42;;;1.92;;
75234;SDS011;63817;51.228;-1.472;2022-12-29T08:26:45;9.45;;;1.58;;
75234;SDS011;63817;51.228;-1.472;2022-12-29T08:29:10;12.57;;;1.40;;
75234;SDS011;63817;51.228;-1.472;2022-12-29T08:31:36;9.40;;;1.55;;
75234;SDS011;63817;51.228;-1.472;2022-12-29T08:34:01;18.58;;;2.53;;
75234;SDS011;63817;51.228;-1.472;2022-12-29T08:36:28;18.17;;;2.13;;
75234;SDS011;63817;51.228;-1.472;2022-12-29T08:38:53;6.43;;;1.35;;
75234;SDS011;63817;51.228;-1.472;2022-12-29T08:41:19;15.38;;;1.58;;
75234;SDS011;63817;51.228;-1.472;2022-12-29T08:43:48;9.95;;;1.33;;
75234;SDS011;63817;51.228;-1.472;2022-12-29T08:46:14;7.47;;;1.63;;
75234;SDS011;63817;51.228;-1.472;2022-12-29T08:48:40;8.52;;;1.20;;
75234;SDS011;63817;51.228;-1.472;2022-12-29T08:51:06;4.50;;;1.63;;
75234;SDS011;63817;51.228;-1.472;2022-12-29T08:53:31;61.42;;;2.83;;
75234;SDS011;63817;51.228;-1.472;2022-12-29T08:56:00;6.38;;;1.02;;
75234;SDS011;63817;51.228;-1.472;2022-12-29T08:58:26;8.27;;;1.25;;
75234;SDS011;63817;51.228;-1.472;2022-12-29T09:00:55;12.40;;;1.33;;
75234;SDS011;63817;51.228;-1.472;2022-12-29T09:03:21;9.43;;;1.30;;
75234;SDS011;63817;51.228;-1.472;2022-12-29T09:05:48;16.00;;;2.05;;
75234;SDS011;63817;51.228;-1.472;2022-12-29T09:08:15;9.60;;;1.13;;
75234;SDS011;63817;51.228;-1.472;2022-12-29T09:10:40;4.40;;;1.15;;
75234;SDS011;63817;51.228;-1.472;2022-12-29T09:13:06;12.20;;;1.20;;
75234;SDS011;63817;51.228;-1.472;2022-12-29T09:15:31;54.83;;;4.45;;
75234;SDS011;63817;51.228;-1.472;2022-12-29T09:17:57;7.97;;;1.90;;
75234;SDS011;63817;51.228;-1.472;2022-12-29T09:20:22;9.30;;;1.20;;
75234;SDS011;63817;51.228;-1.472;2022-12-29T09:22:48;5.43;;;1.27;;
75234;SDS011;63817;51.228;-1.472;2022-12-29T09:25:13;6.78;;;0.98;;
75234;SDS011;63817;51.228;-1.472;2022-12-29T09:27:39;5.43;;;1.30;;
75234;SDS011;63817;51.228;-1.472;2022-12-29T09:30:06;5.00;;;1.00;;
75234;SDS011;63817;51.228;-1.472;2022-12-29T09:32:33;10.20;;;1.27;;
75234;SDS011;63817;51.228;-1.472;2022-12-29T09:34:59;4.95;;;1.08;;
75234;SDS011;63817;51.228;-1.472;2022-12-29T09:37:25;9.60;;;1.65;;
75234;SDS011;63817;51.228;-1.472;2022-12-29T09:39:50;7.20;;;1.10;;
75234;SDS011;63817;51.228;-1.472;2022-12-29T09:42:27;7.15;;;1.35;;
75234;SDS011;63817;51.228;-1.472;2022-12-29T09:47:40;8.43;;;1.83;;
75234;SDS011;63817;51.228;-1.472;2022-12-29T09:52:41;5.03;;;1.00;;
75234;SDS011;63817;51.228;-1.472;2022-12-29T09:55:16;10.75;;;2.05;;
75234;SDS011;63817;51.228;-1.472;2022-12-29T09:57:49;4.97;;;1.15;;
75234;SDS011;63817;51.228;-1.472;2022-12-29T10:00:21;8.55;;;1.45;;
75234;SDS011;63817;51.228;-1.472;2022-12-29T10:07:55;5.65;;;1.50;;
75234;SDS011;63817;51.228;-1.472;2022-12-29T10:10:41;7.85;;;1.20;;
75234;SDS011;63817;51.228;-1.472;2022-12-29T10:13:24;6.68;;;1.42;;
75234;SDS011;63817;51.228;-1.472;2022-12-29T10:18:53;9.68;;;1.65;;
75234;SDS011;63817;51.228;-1.472;2022-12-29T10:24:23;11.80;;;1.65;;
75234;SDS011;63817;51.228;-1.472;2022-12-29T10:26:50;10.07;;;1.75;;
75234;SDS011;63817;51.228;-1.472;2022-12-29T10:29:20;8.73;;;1.40;;
75234;SDS011;63817;51.228;-1.472;2022-12-29T10:31:48;13.32;;;1.80;;
75234;SDS011;63817;51.228;-1.472;2022-12-29T10:34:20;13.48;;;2.17;;
75234;SDS011;63817;51.228;-1.472;2022-12-29T10:36:51;11.27;;;2.10;;
75234;SDS011;63817;51.228;-1.472;2022-12-29T10:39:40;13.82;;;2.13;;
75234;SDS011;63817;51.228;-1.472;2022-12-29T10:42:15;13.63;;;3.05;;
75234;SDS011;63817;51.228;-1.472;2022-12-29T10:44:42;13.60;;;1.98;;
75234;SDS011;63817;51.228;-1.472;2022-12-29T10:47:15;13.65;;;1.92;;
75234;SDS011;63817;51.228;-1.472;2022-12-29T10:49:42;10.27;;;2.33;;
75234;SDS011;63817;51.228;-1.472;2022-12-29T10:52:10;11.85;;;2.55;;
75234;SDS011;63817;51.228;-1.472;2022-12-29T10:54:47;19.42;;;2.67;;
75234;SDS011;63817;51.228;-1.472;2022-12-29T10:57:38;12.18;;;1.77;;
75234;SDS011;63817;51.228;-1.472;2022-12-29T11:00:15;9.80;;;1.92;;
75234;SDS011;63817;51.228;-1.472;2022-12-29T11:05:25;16.13;;;3.17;;
75234;SDS011;63817;51.228;-1.472;2022-12-29T11:08:00;23.70;;;3.15;;
75234;SDS011;63817;51.228;-1.472;2022-12-29T11:12:57;19.05;;;2.97;;
75234;SDS011;63817;51.228;-1.472;2022-12-29T11:15:26;20.17;;;2.67;;
75234;SDS011;63817;51.228;-1.472;2022-12-29T11:17:53;16.98;;;3.38;;
75234;SDS011;63817;51.228;-1.472;2022-12-29T11:22:55;12.52;;;2.70;;
75234;SDS011;63817;51.228;-1.472;2022-12-29T11:25:20;12.20;;;2.65;;
75234;SDS011;63817;51.228;-1.472;2022-12-29T11:30:40;20.70;;;3.33;;
75234;SDS011;63817;51.228;-1.472;2022-12-29T11:33:06;14.35;;;2.33;;
75234;SDS011;63817;51.228;-1.472;2022-12-29T11:35:34;14.07;;;3.03;;
75234;SDS011;63817;51.228;-1.472;2022-12-29T11:38:18;20.40;;;3.55;;
75234;SDS011;63817;51.228;-1.472;2022-12-29T11:40:45;18.10;;;3.22;;
75234;SDS011;63817;51.228;-1.472;2022-12-29T11:43:18;13.85;;;2.85;;
75234;SDS011;63817;51.228;-1.472;2022-12-29T11:45:55;19.52;;;3.47;;
75234;SDS011;63817;51.228;-1.472;2022-12-29T11:48:21;31.95;;;3.38;;
75234;SDS011;63817;51.228;-1.472;2022-12-29T11:50:51;14.77;;;3.10;;
75234;SDS011;63817;51.228;-1.472;2022-12-29T11:53:22;23.58;;;3.83;;
75234;SDS011;63817;51.228;-1.472;2022-12-29T11:58:28;18.80;;;3.00;;
75234;SDS011;63817;51.228;-1.472;2022-12-29T12:03:50;13.18;;;2.90;;
75234;SDS011;63817;51.228;-1.472;2022-12-29T12:06:22;18.40;;;3.40;;
75234;SDS011;63817;51.228;-1.472;2022-12-29T12:11:19;22.80;;;3.78;;
75234;SDS011;63817;51.228;-1.472;2022-12-29T12:16:46;17.38;;;3.28;;
75234;SDS011;63817;51.228;-1.472;2022-12-29T12:24:46;25.10;;;3.17;;
75234;SDS011;63817;51.228;-1.472;2022-12-29T12:27:39;19.08;;;3.00;;
75234;SDS011;63817;51.228;-1.472;2022-12-29T12:30:15;24.75;;;3.35;;
75234;SDS011;63817;51.228;-1.472;2022-12-29T12:32:54;15.60;;;3.45;;
75234;SDS011;63817;51.228;-1.472;2022-12-29T12:35:32;17.52;;;3.20;;
75234;SDS011;63817;51.228;-1.472;2022-12-29T12:40:49;20.10;;;3.90;;
75234;SDS011;63817;51.228;-1.472;2022-12-29T12:43:44;20.25;;;2.55;;
75234;SDS011;63817;51.228;-1.472;2022-12-29T12:46:19;13.18;;;2.75;;
75234;SDS011;63817;51.228;-1.472;2022-12-29T12:48:54;16.85;;;3.15;;
75234;SDS011;63817;51.228;-1.472;2022-12-29T12:51:50;17.85;;;2.80;;
75234;SDS011;63817;51.228;-1.472;2022-12-29T12:57:38;20.90;;;2.47;;
75234;SDS011;63817;51.228;-1.472;2022-12-29T13:00:07;11.93;;;2.72;;
75234;SDS011;63817;51.228;-1.472;2022-12-29T13:02:36;18.50;;;3.05;;
75234;SDS011;63817;51.228;-1.472;2022-12-29T13:11:02;15.40;;;3.00;;
75234;SDS011;63817;51.228;-1.472;2022-12-29T13:16:44;15.55;;;3.08;;
75234;SDS011;63817;51.228;-1.472;2022-12-29T13:22:40;13.52;;;2.67;;
75234;SDS011;63817;51.228;-1.472;2022-12-29T13:34:03;17.80;;;2.88;;
75234;SDS011;63817;51.228;-1.472;2022-12-29T13:36:48;13.77;;;2.42;;
75234;SDS011;63817;51.228;-1.472;2022-12-29T13:39:20;18.10;;;2.83;;
75234;SDS011;63817;51.228;-1.472;2022-12-29T13:41:50;16.00;;;3.17;;
75234;SDS011;63817;51.228;-1.472;2022-12-29T13:44:33;14.60;;;3.00;;
75234;SDS011;63817;51.228;-1.472;2022-12-29T13:47:39;8.38;;;2.60;;
75234;SDS011;63817;51.228;-1.472;2022-12-29T13:50:12;16.30;;;2.90;;
75234;SDS011;63817;51.228;-1.472;2022-12-29T13:58:08;24.88;;;3.25;;
75234;SDS011;63817;51.228;-1.472;2022-12-29T14:03:42;13.23;;;2.63;;
75234;SDS011;63817;51.228;-1.472;2022-12-29T14:06:19;19.70;;;3.13;;
75234;SDS011;63817;51.228;-1.472;2022-12-29T14:08:53;22.35;;;2.78;;
75234;SDS011;63817;51.228;-1.472;2022-12-29T14:11:32;17.67;;;3.47;;
75234;SDS011;63817;51.228;-1.472;2022-12-29T14:14:10;16.70;;;2.33;;
75234;SDS011;63817;51.228;-1.472;2022-12-29T14:16:38;19.23;;;2.92;;
75234;SDS011;63817;51.228;-1.472;2022-12-29T14:19:15;21.75;;;2.80;;
75234;SDS011;63817;51.228;-1.472;2022-12-29T14:21:49;9.93;;;2.63;;
75234;SDS011;63817;51.228;-1.472;2022-12-29T14:27:00;15.43;;;2.92;;
75234;SDS011;63817;51.228;-1.472;2022-12-29T14:29:50;20.65;;;4.00;;
75234;SDS011;63817;51.228;-1.472;2022-12-29T14:34:50;16.05;;;3.38;;
75234;SDS011;63817;51.228;-1.472;2022-12-29T14:37:27;14.63;;;2.42;;
75234;SDS011;63817;51.228;-1.472;2022-12-29T14:42:48;19.05;;;2.45;;
75234;SDS011;63817;51.228;-1.472;2022-12-29T14:47:45;17.30;;;2.80;;
75234;SDS011;63817;51.228;-1.472;2022-12-29T14:50:15;10.85;;;2.22;;
75234;SDS011;63817;51.228;-1.472;2022-12-29T14:52:53;15.90;;;2.72;;
75234;SDS011;63817;51.228;-1.472;2022-12-29T14:55:40;12.52;;;1.95;;
75234;SDS011;63817;51.228;-1.472;2022-12-29T14:58:06;19.17;;;3.60;;
75234;SDS011;63817;51.228;-1.472;2022-12-29T15:00:55;20.27;;;3.88;;
75234;SDS011;63817;51.228;-1.472;2022-12-29T15:03:22;16.42;;;4.07;;
75234;SDS011;63817;51.228;-1.472;2022-12-29T15:05:50;18.42;;;2.80;;
75234;SDS011;63817;51.228;-1.472;2022-12-29T15:08:22;15.82;;;3.15;;
75234;SDS011;63817;51.228;-1.472;2022-12-29T15:11:03;16.15;;;2.63;;
75234;SDS011;63817;51.228;-1.472;2022-12-29T15:13:38;17.27;;;2.88;;
75234;SDS011;63817;51.228;-1.472;2022-12-29T15:18:51;26.98;;;3.80;;
75234;SDS011;63817;51.228;-1.472;2022-12-29T15:21:17;19.10;;;4.28;;
75234;SDS011;63817;51.228;-1.472;2022-12-29T15:23:52;13.88;;;2.60;;
75234;SDS011;63817;51.228;-1.472;2022-12-29T15:26:17;20.05;;;3.20;;
75234;SDS011;63817;51.228;-1.472;2022-12-29T15:28:47;21.67;;;3.67;;
75234;SDS011;63817;51.228;-1.472;2022-12-29T15:33:44;25.38;;;4.70;;
75234;SDS011;63817;51.228;-1.472;2022-12-29T15:36:24;15.73;;;2.50;;
75234;SDS011;63817;51.228;-1.472;2022-12-29T15:38:51;16.17;;;2.65;;
75234;SDS011;63817;51.228;-1.472;2022-12-29T15:43:49;15.77;;;3.38;;
75234;SDS011;63817;51.228;-1.472;2022-12-29T15:46:19;11.23;;;2.30;;
75234;SDS011;63817;51.228;-1.472;2022-12-29T15:48:45;17.38;;;4.03;;
75234;SDS011;63817;51.228;-1.472;2022-12-29T15:53:49;15.40;;;2.97;;
75234;SDS011;63817;51.228;-1.472;2022-12-29T15:56:16;20.52;;;3.22;;
75234;SDS011;63817;51.228;-1.472;2022-12-29T15:58:42;21.27;;;6.88;;
75234;SDS011;63817;51.228;-1.472;2022-12-29T16:01:16;19.45;;;3.13;;
75234;SDS011;63817;51.228;-1.472;2022-12-29T16:03:45;20.75;;;3.20;;
75234;SDS011;63817;51.228;-1.472;2022-12-29T16:06:25;18.45;;;2.95;;
75234;SDS011;63817;51.228;-1.472;2022-12-29T16:09:19;24.63;;;4.38;;
75234;SDS011;63817;51.228;-1.472;2022-12-29T16:11:55;16.45;;;2.65;;
75234;SDS011;63817;51.228;-1.472;2022-12-29T16:14:33;23.55;;;3.85;;
75234;SDS011;63817;51.228;-1.472;2022-12-29T16:17:12;14.38;;;2.60;;
75234;SDS011;63817;51.228;-1.472;2022-12-29T16:19:40;11.02;;;2.65;;
75234;SDS011;63817;51.228;-1.472;2022-12-29T16:22:12;14.05;;;2.60;;
75234;SDS011;63817;51.228;-1.472;2022-12-29T16:24:42;21.70;;;3.20;;
75234;SDS011;63817;51.228;-1.472;2022-12-29T16:27:19;13.88;;;3.03;;
75234;SDS011;63817;51.228;-1.472;2022-12-29T16:29:48;22.35;;;2.60;;
75234;SDS011;63817;51.228;-1.472;2022-12-29T16:32:27;19.88;;;2.67;;
75234;SDS011;63817;51.228;-1.472;2022-12-29T16:37:46;22.33;;;3.10;;
75234;SDS011;63817;51.228;-1.472;2022-12-29T16:42:47;17.05;;;3.30;;
75234;SDS011;63817;51.228;-1.472;2022-12-29T16:47:48;14.32;;;3.17;;
75234;SDS011;63817;51.228;-1.472;2022-12-29T16:50:20;17.98;;;2.78;;
75234;SDS011;63817;51.228;-1.472;2022-12-29T16:52:48;19.95;;;2.58;;
75234;SDS011;63817;51.228;-1.472;2022-12-29T16:55:17;13.60;;;3.15;;